createdAt,value
2019-06-26T00:01:53.257Z,13
2019-06-26T00:06:55.592Z,12
2019-06-26T00:17:00.530Z,13
2019-06-26T00:22:03.010Z,12
2019-06-26T00:27:05.434Z,12
2019-06-26T00:32:07.906Z,13
2019-06-26T00:37:10.384Z,12
2019-06-26T00:42:12.858Z,13
2019-06-26T00:47:15.261Z,12
2019-06-26T00:52:17.742Z,13
2019-06-26T00:57:20.207Z,14
2019-06-26T01:02:22.643Z,13
2019-06-26T01:07:25.095Z,16
2019-06-26T01:12:27.581Z,14
2019-06-26T01:17:30.077Z,16
2019-06-26T01:22:32.524Z,16
2019-06-26T01:27:34.953Z,21
2019-06-26T01:32:37.428Z,15
2019-06-26T01:37:39.846Z,16
2019-06-26T01:42:42.307Z,15
2019-06-26T01:47:44.763Z,16
2019-06-26T01:52:47.224Z,16
2019-06-26T01:57:49.694Z,13
2019-06-26T02:02:52.454Z,15
2019-06-26T02:07:54.610Z,17
2019-06-26T02:12:57.066Z,18
2019-06-26T02:17:59.789Z,18
2019-06-26T02:23:02.033Z,16
2019-06-26T02:28:04.421Z,16
2019-06-26T02:33:06.872Z,17
2019-06-26T02:38:09.348Z,18
2019-06-26T02:43:11.802Z,18
2019-06-26T02:48:14.416Z,19
2019-06-26T02:53:16.730Z,18
2019-06-26T02:58:19.175Z,19
2019-06-26T03:03:21.658Z,20
2019-06-26T03:08:24.097Z,18
2019-06-26T03:13:26.586Z,20
2019-06-26T03:18:29.127Z,22
2019-06-26T03:23:31.474Z,22
2019-06-26T03:28:35.974Z,19
2019-06-26T03:33:36.448Z,20
2019-06-26T03:38:38.920Z,21
2019-06-26T03:43:41.462Z,21
2019-06-26T03:48:43.891Z,21
2019-06-26T03:53:46.213Z,19
2019-06-26T03:58:48.768Z,19
2019-06-26T04:03:51.199Z,20
2019-06-26T04:08:53.603Z,21
2019-06-26T04:13:56.076Z,19
2019-06-26T04:18:58.602Z,19
2019-06-26T04:24:01.000Z,21
2019-06-26T04:29:03.455Z,16
2019-06-26T04:34:05.909Z,21
2019-06-26T04:39:08.372Z,21
2019-06-26T04:44:10.844Z,22
2019-06-26T04:49:13.270Z,19
2019-06-26T04:54:15.766Z,19
2019-06-26T04:59:18.201Z,18
2019-06-26T05:04:20.665Z,20
2019-06-26T05:09:23.110Z,18
2019-06-26T05:14:25.606Z,17
2019-06-26T05:19:28.044Z,17
2019-06-26T05:24:30.493Z,16
2019-06-26T05:29:32.945Z,15
2019-06-26T05:34:35.510Z,17
2019-06-26T05:39:37.876Z,15
2019-06-26T05:44:40.354Z,14
2019-06-26T05:49:42.856Z,14
2019-06-26T05:54:45.245Z,12
2019-06-26T05:59:47.735Z,12
2019-06-26T06:04:50.284Z,12
2019-06-26T06:09:52.772Z,13
2019-06-26T06:14:55.074Z,10
2019-06-26T06:19:57.547Z,11
2019-06-26T06:25:00.024Z,12
2019-06-26T06:30:02.699Z,10
2019-06-26T06:35:05.013Z,7
2019-06-26T06:40:07.376Z,7
2019-06-26T06:45:09.861Z,5
2019-06-26T06:50:12.319Z,7
2019-06-26T06:55:14.803Z,5
2019-06-26T07:00:17.293Z,5
2019-06-26T07:05:19.873Z,5
2019-06-26T07:15:24.732Z,5
2019-06-26T07:20:27.094Z,8
2019-06-26T07:25:30.003Z,4
2019-06-26T07:30:32.037Z,5
2019-06-26T07:35:34.486Z,6
2019-06-26T07:40:37.142Z,4
2019-06-26T07:45:39.496Z,5
2019-06-26T07:50:41.899Z,7
2019-06-26T07:55:44.423Z,5
2019-06-26T08:00:46.834Z,5
2019-06-26T08:05:49.263Z,5
2019-06-26T08:10:51.710Z,5
2019-06-26T08:15:54.199Z,5
2019-06-26T08:21:11.284Z,5
2019-06-26T08:25:59.362Z,4
2019-06-26T08:31:01.629Z,6
2019-06-26T08:36:04.089Z,8
2019-06-26T08:41:06.528Z,7
2019-06-26T08:51:11.423Z,5
2019-06-26T08:56:13.882Z,8
2019-06-26T09:01:16.347Z,6
2019-06-26T09:06:18.850Z,6
2019-06-26T09:16:23.783Z,6
2019-06-26T09:21:26.344Z,5
2019-06-26T09:26:28.803Z,5
2019-06-26T09:31:31.099Z,6
2019-06-26T09:36:33.585Z,5
2019-06-26T09:41:36.110Z,5
2019-06-26T09:51:40.943Z,5
2019-06-26T09:56:43.408Z,5
2019-06-26T10:01:45.889Z,5
2019-06-26T10:06:48.345Z,4
2019-06-26T10:11:50.807Z,6
2019-06-26T10:16:53.307Z,5
2019-06-26T10:21:55.885Z,5
2019-06-26T10:26:58.299Z,7
2019-06-26T10:32:00.673Z,6
2019-06-26T10:37:03.156Z,8
2019-06-26T10:42:05.643Z,10
2019-06-26T10:47:08.107Z,6
2019-06-26T10:52:10.534Z,5
2019-06-26T10:57:12.964Z,4
2019-06-26T11:02:16.907Z,9
2019-06-26T11:07:18.010Z,6
2019-06-26T11:12:20.562Z,7
2019-06-26T11:17:23.044Z,5
2019-06-26T11:22:25.305Z,5
2019-06-26T11:27:27.791Z,5
2019-06-26T11:32:30.239Z,6
2019-06-26T11:37:32.649Z,5
2019-06-26T11:42:35.232Z,5
2019-06-26T11:47:37.664Z,8
2019-06-26T11:52:40.096Z,10
2019-06-26T11:57:42.499Z,7
2019-06-26T12:02:45.020Z,6
2019-06-26T12:07:47.443Z,6
2019-06-26T12:12:49.908Z,6
2019-06-26T12:17:52.551Z,6
2019-06-26T12:22:54.796Z,6
2019-06-26T12:27:57.312Z,8
2019-06-26T12:33:03.180Z,7
2019-06-26T12:38:02.195Z,6
2019-06-26T12:43:04.642Z,6
2019-06-26T12:48:07.558Z,6
2019-06-26T12:53:09.590Z,6
2019-06-26T12:58:14.855Z,6
2019-06-26T13:03:14.501Z,8
2019-06-26T13:08:17.205Z,15
2019-06-26T13:23:24.407Z,7
2019-06-26T13:28:26.829Z,7
2019-06-26T13:38:31.824Z,7
2019-06-26T13:43:34.210Z,7
2019-06-26T13:48:37.736Z,9
2019-06-26T13:53:39.297Z,11
2019-06-26T13:58:41.620Z,8
2019-06-26T14:03:44.145Z,7
2019-06-26T14:08:46.585Z,7
2019-06-26T14:13:49.103Z,9
2019-06-26T14:18:52.048Z,7
2019-06-26T14:23:53.944Z,10
2019-06-26T14:28:56.412Z,8
2019-06-26T14:33:58.999Z,11
2019-06-26T14:39:01.341Z,9
2019-06-26T14:44:03.858Z,10
2019-06-26T14:49:06.525Z,7
2019-06-26T14:54:08.749Z,8
2019-06-26T14:59:11.203Z,14
2019-06-26T15:04:13.647Z,10
2019-06-26T15:09:16.236Z,7
2019-06-26T15:14:18.714Z,13
2019-06-26T15:19:21.812Z,9
2019-06-26T15:24:23.591Z,8
2019-06-26T15:29:26.007Z,9
2019-06-26T15:34:28.456Z,8
2019-06-26T15:39:30.882Z,9
2019-06-26T15:44:33.393Z,7
2019-06-26T15:49:35.839Z,7
2019-06-26T15:54:38.260Z,8
2019-06-26T15:59:40.774Z,9
2019-06-26T16:04:43.163Z,11
2019-06-26T16:09:45.693Z,9
2019-06-26T16:14:48.098Z,12
2019-06-26T16:19:50.655Z,8
2019-06-26T16:24:53.066Z,8
2019-06-26T16:29:55.587Z,10
2019-06-26T16:34:57.956Z,8
2019-06-26T16:40:00.403Z,10
2019-06-26T16:45:02.888Z,7
2019-06-26T16:50:05.477Z,14
2019-06-26T16:55:07.789Z,9
2019-06-26T17:00:10.544Z,11
2019-06-26T17:05:12.771Z,11
2019-06-26T17:10:15.216Z,8
2019-06-26T17:15:17.702Z,10
2019-06-26T17:20:20.195Z,8
2019-06-26T17:25:22.552Z,9
2019-06-26T17:30:25.101Z,8
2019-06-26T17:35:27.463Z,10
2019-06-26T17:40:29.928Z,11
2019-06-26T17:45:32.439Z,18
2019-06-26T17:50:34.957Z,11
2019-06-26T17:55:37.433Z,12
2019-06-26T18:00:39.818Z,11
2019-06-26T18:05:42.359Z,10
2019-06-26T18:10:44.895Z,10
2019-06-26T18:15:47.311Z,8
2019-06-26T18:20:50.293Z,9
2019-06-26T18:25:54.383Z,11
2019-06-26T18:30:54.589Z,11
2019-06-26T18:35:56.985Z,10
2019-06-26T18:40:59.605Z,10
2019-06-26T18:46:02.019Z,17
2019-06-26T18:51:04.534Z,8
2019-06-26T18:56:06.956Z,10
2019-06-26T19:01:09.320Z,11
2019-06-26T19:06:11.760Z,13
2019-06-26T19:11:14.329Z,16
2019-06-26T19:16:16.694Z,11
2019-06-26T19:21:19.258Z,12
2019-06-26T19:26:21.645Z,12
2019-06-26T19:31:24.084Z,11
2019-06-26T19:36:28.609Z,13
2019-06-26T19:41:29.017Z,11
2019-06-26T19:46:31.472Z,12
2019-06-26T19:51:33.924Z,16
2019-06-26T19:56:36.423Z,11
2019-06-26T20:01:38.907Z,11
2019-06-26T20:06:41.250Z,10
2019-06-26T20:11:43.729Z,12
2019-06-26T20:16:46.189Z,14
2019-06-26T20:21:48.699Z,11
2019-06-26T20:26:51.181Z,11
2019-06-26T20:31:53.658Z,12
2019-06-26T20:36:56.183Z,13
2019-06-26T20:41:58.716Z,11
2019-06-26T20:47:00.965Z,12
2019-06-26T20:52:03.740Z,12
2019-06-26T20:57:05.881Z,13
2019-06-26T21:02:08.405Z,11
2019-06-26T21:07:10.818Z,12
2019-06-26T21:12:13.232Z,11
2019-06-26T21:17:15.710Z,11
2019-06-26T21:22:18.254Z,11
2019-06-26T21:27:20.624Z,10
2019-06-26T21:32:23.073Z,11
2019-06-26T21:37:25.546Z,12
2019-06-26T21:42:28.037Z,13
2019-06-26T21:47:30.481Z,11
2019-06-26T21:52:32.932Z,13
2019-06-26T21:57:35.440Z,11
2019-06-26T22:02:38.135Z,11
2019-06-26T22:07:40.355Z,12
2019-06-26T22:12:42.772Z,12
2019-06-26T22:17:45.230Z,12
2019-06-26T22:22:47.782Z,12
2019-06-26T22:27:50.196Z,11
2019-06-26T22:32:52.899Z,12
2019-06-26T22:37:55.042Z,11
2019-06-26T22:42:57.613Z,12
2019-06-26T22:47:59.956Z,10
2019-06-26T22:53:02.444Z,11
2019-06-26T22:58:04.944Z,11
2019-06-26T23:03:07.438Z,11
2019-06-26T23:08:09.801Z,10
2019-06-26T23:13:12.294Z,9
2019-06-26T23:18:14.773Z,11
2019-06-26T23:23:17.180Z,9
2019-06-26T23:28:19.642Z,10
2019-06-26T23:33:22.204Z,9
2019-06-26T23:38:24.556Z,8
2019-06-26T23:43:27.074Z,10
2019-06-26T23:48:29.581Z,9
2019-06-26T23:53:31.932Z,8
2019-06-26T23:58:34.430Z,9
